sensor_id;sensor_type;location;lat;lon;timestamp;pressure;altitude;pressure_sealevel;temperature;humidity
53960;BME280;39866;48.638;-2.020;2024-01-25T00:00:50;102901.81;;;17.63;100.00
53960;BME280;39866;48.638;-2.020;2024-01-25T00:03:15;102901.00;;;17.59;100.00
53960;BME280;39866;48.638;-2.020;2024-01-25T00:05:41;102894.06;;;17.49;100.00
53960;BME280;39866;48.638;-2.020;2024-01-25T00:08:06;102902.22;;;17.46;100.00
53960;BME280;39866;48.638;-2.020;2024-01-25T00:10:31;102892.31;;;17.48;100.00
53960;BME280;39866;48.638;-2.020;2024-01-25T00:12:57;102895.88;;;17.47;100.00
53960;BME280;39866;48.638;-2.020;2024-01-25T00:15:22;102899.34;;;17.53;100.00
53960;BME280;39866;48.638;-2.020;2024-01-25T00:17:47;102897.63;;;17.49;100.00
53960;BME280;39866;48.638;-2.020;2024-01-25T00:20:13;102891.38;;;17.49;100.00
53960;BME280;39866;48.638;-2.020;2024-01-25T00:22:38;102886.81;;;17.52;100.00
53960;BME280;39866;48.638;-2.020;2024-01-25T00:25:04;102888.63;;;17.50;100.00
53960;BME280;39866;48.638;-2.020;2024-01-25T00:27:29;102898.69;;;17.44;100.00
53960;BME280;39866;48.638;-2.020;2024-01-25T00:29:55;102882.97;;;17.24;100.00
53960;BME280;39866;48.638;-2.020;2024-01-25T00:32:21;102885.94;;;17.50;100.00
53960;BME280;39866;48.638;-2.020;2024-01-25T00:34:46;102892.47;;;17.40;100.00
53960;BME280;39866;48.638;-2.020;2024-01-25T00:37:12;102878.31;;;17.32;100.00
53960;BME280;39866;48.638;-2.020;2024-01-25T00:39:38;102892.16;;;17.15;100.00
53960;BME280;39866;48.638;-2.020;2024-01-25T00:42:04;102889.66;;;17.45;100.00
53960;BME280;39866;48.638;-2.020;2024-01-25T00:44:33;102894.19;;;17.43;100.00
53960;BME280;39866;48.638;-2.020;2024-01-25T00:46:59;102896.06;;;17.41;100.00
53960;BME280;39866;48.638;-2.020;2024-01-25T00:49:24;102897.53;;;17.54;100.00
53960;BME280;39866;48.638;-2.020;2024-01-25T00:51:58;102899.41;;;17.50;100.00
53960;BME280;39866;48.638;-2.020;2024-01-25T00:54:24;102903.91;;;17.50;100.00
53960;BME280;39866;48.638;-2.020;2024-01-25T00:56:49;102900.28;;;17.51;100.00
53960;BME280;39866;48.638;-2.020;2024-01-25T00:59:20;102891.31;;;17.52;100.00
53960;BME280;39866;48.638;-2.020;2024-01-25T01:01:47;102895.13;;;17.42;100.00
53960;BME280;39866;48.638;-2.020;2024-01-25T01:04:15;102897.69;;;17.46;100.00
53960;BME280;39866;48.638;-2.020;2024-01-25T01:06:41;102902.38;;;17.40;100.00
53960;BME280;39866;48.638;-2.020;2024-01-25T01:09:07;102898.06;;;17.31;100.00
53960;BME280;39866;48.638;-2.020;2024-01-25T01:11:33;102895.06;;;17.45;100.00
53960;BME280;39866;48.638;-2.020;2024-01-25T01:13:58;102885.31;;;17.39;100.00
53960;BME280;39866;48.638;-2.020;2024-01-25T01:16:23;102888.69;;;17.49;100.00
53960;BME280;39866;48.638;-2.020;2024-01-25T01:18:49;102887.44;;;17.25;100.00
53960;BME280;39866;48.638;-2.020;2024-01-25T01:21:14;102886.59;;;17.21;100.00
53960;BME280;39866;48.638;-2.020;2024-01-25T01:23:39;102892.75;;;17.28;100.00
53960;BME280;39866;48.638;-2.020;2024-01-25T01:26:05;102892.06;;;17.18;100.00
53960;BME280;39866;48.638;-2.020;2024-01-25T01:28:30;102884.78;;;17.23;100.00
53960;BME280;39866;48.638;-2.020;2024-01-25T01:30:56;102878.25;;;17.35;100.00
53960;BME280;39866;48.638;-2.020;2024-01-25T01:33:21;102881.72;;;17.39;100.00
53960;BME280;39866;48.638;-2.020;2024-01-25T01:35:46;102883.56;;;17.37;100.00
53960;BME280;39866;48.638;-2.020;2024-01-25T01:38:12;102886.88;;;17.49;100.00
53960;BME280;39866;48.638;-2.020;2024-01-25T01:40:37;102887.91;;;17.44;100.00
53960;BME280;39866;48.638;-2.020;2024-01-25T01:43:02;102893.28;;;17.44;100.00
53960;BME280;39866;48.638;-2.020;2024-01-25T01:45:28;102888.91;;;17.38;100.00
53960;BME280;39866;48.638;-2.020;2024-01-25T01:47:55;102884.78;;;17.23;100.00
53960;BME280;39866;48.638;-2.020;2024-01-25T01:50:21;102890.00;;;17.29;100.00
53960;BME280;39866;48.638;-2.020;2024-01-25T01:52:48;102883.75;;;17.29;100.00
53960;BME280;39866;48.638;-2.020;2024-01-25T01:55:14;102888.03;;;17.38;100.00
53960;BME280;39866;48.638;-2.020;2024-01-25T01:57:41;102880.94;;;17.33;100.00
53960;BME280;39866;48.638;-2.020;2024-01-25T02:00:08;102886.50;;;17.27;100.00
53960;BME280;39866;48.638;-2.020;2024-01-25T02:02:34;102878.31;;;17.30;100.00
53960;BME280;39866;48.638;-2.020;2024-01-25T02:05:00;102885.22;;;17.44;100.00
53960;BME280;39866;48.638;-2.020;2024-01-25T02:07:26;102881.09;;;17.27;100.00
53960;BME280;39866;48.638;-2.020;2024-01-25T02:09:51;102887.91;;;17.44;100.00
53960;BME280;39866;48.638;-2.020;2024-01-25T02:12:17;102886.41;;;17.30;100.00
53960;BME280;39866;48.638;-2.020;2024-01-25T02:14:42;102873.13;;;17.23;100.00
53960;BME280;39866;48.638;-2.020;2024-01-25T02:17:08;102886.34;;;17.33;100.00
53960;BME280;39866;48.638;-2.020;2024-01-25T02:19:33;102881.91;;;17.31;100.00
53960;BME280;39866;48.638;-2.020;2024-01-25T02:21:59;102876.94;;;17.13;100.00
53960;BME280;39866;48.638;-2.020;2024-01-25T02:24:24;102869.75;;;17.13;100.00
53960;BME280;39866;48.638;-2.020;2024-01-25T02:26:49;102870.41;;;17.24;100.00
53960;BME280;39866;48.638;-2.020;2024-01-25T02:29:15;102872.66;;;17.04;100.00
53960;BME280;39866;48.638;-2.020;2024-01-25T02:31:40;102878.47;;;17.24;100.00
53960;BME280;39866;48.638;-2.020;2024-01-25T02:34:06;102872.97;;;17.29;100.00
53960;BME280;39866;48.638;-2.020;2024-01-25T02:36:31;102876.44;;;17.34;100.00
53960;BME280;39866;48.638;-2.020;2024-01-25T02:38:57;102876.66;;;17.25;100.00
53960;BME280;39866;48.638;-2.020;2024-01-25T02:41:22;102859.03;;;17.10;100.00
53960;BME280;39866;48.638;-2.020;2024-01-25T02:43:48;102861.44;;;17.24;100.00
53960;BME280;39866;48.638;-2.020;2024-01-25T02:46:13;102849.41;;;17.39;100.00
53960;BME280;39866;48.638;-2.020;2024-01-25T02:48:38;102856.88;;;17.26;100.00
53960;BME280;39866;48.638;-2.020;2024-01-25T02:51:04;102846.28;;;17.20;100.00
53960;BME280;39866;48.638;-2.020;2024-01-25T02:53:29;102856.88;;;17.26;100.00
53960;BME280;39866;48.638;-2.020;2024-01-25T02:55:54;102858.41;;;16.99;100.00
53960;BME280;39866;48.638;-2.020;2024-01-25T02:58:20;102853.03;;;16.99;100.00
53960;BME280;39866;48.638;-2.020;2024-01-25T03:00:46;102868.88;;;17.13;100.00
53960;BME280;39866;48.638;-2.020;2024-01-25T03:03:11;102869.47;;;17.25;100.00
53960;BME280;39866;48.638;-2.020;2024-01-25T03:05:36;102866.72;;;17.28;100.00
53960;BME280;39866;48.638;-2.020;2024-01-25T03:08:02;102862.38;;;17.23;100.00
53960;BME280;39866;48.638;-2.020;2024-01-25T03:10:27;102857.53;;;16.97;100.00
53960;BME280;39866;48.638;-2.020;2024-01-25T03:12:53;102863.72;;;17.02;100.00
53960;BME280;39866;48.638;-2.020;2024-01-25T03:15:18;102864.94;;;17.27;100.00
53960;BME280;39866;48.638;-2.020;2024-01-25T03:17:43;102863.19;;;17.25;100.00
53960;BME280;39866;48.638;-2.020;2024-01-25T03:20:09;102859.56;;;17.26;100.00
53960;BME280;39866;48.638;-2.020;2024-01-25T03:22:35;102855.13;;;17.25;100.00
53960;BME280;39866;48.638;-2.020;2024-01-25T03:25:00;102853.19;;;17.30;100.00
53960;BME280;39866;48.638;-2.020;2024-01-25T03:27:26;102852.38;;;17.28;100.00
53960;BME280;39866;48.638;-2.020;2024-01-25T03:29:51;102843.75;;;17.12;100.00
53960;BME280;39866;48.638;-2.020;2024-01-25T03:32:16;102858.25;;;17.05;100.00
53960;BME280;39866;48.638;-2.020;2024-01-25T03:34:41;102849.19;;;17.09;100.00
53960;BME280;39866;48.638;-2.020;2024-01-25T03:37:07;102840.97;;;17.17;100.00
53960;BME280;39866;48.638;-2.020;2024-01-25T03:39:32;102846.22;;;17.21;100.00
53960;BME280;39866;48.638;-2.020;2024-01-25T03:41:58;102844.56;;;17.16;100.00
53960;BME280;39866;48.638;-2.020;2024-01-25T03:44:23;102852.06;;;17.01;100.00
53960;BME280;39866;48.638;-2.020;2024-01-25T03:46:49;102842.09;;;17.06;100.00
53960;BME280;39866;48.638;-2.020;2024-01-25T03:49:14;102832.88;;;17.17;100.00
53960;BME280;39866;48.638;-2.020;2024-01-25T03:51:39;102834.09;;;17.03;100.00
53960;BME280;39866;48.638;-2.020;2024-01-25T03:54:05;102839.41;;;17.06;100.00
53960;BME280;39866;48.638;-2.020;2024-01-25T03:56:30;102830.47;;;17.04;100.00
53960;BME280;39866;48.638;-2.020;2024-01-25T03:58:55;102838.22;;;17.18;100.00
53960;BME280;39866;48.638;-2.020;2024-01-25T04:01:21;102829.88;;;16.92;100.00
53960;BME280;39866;48.638;-2.020;2024-01-25T04:03:46;102817.75;;;16.69;100.00
53960;BME280;39866;48.638;-2.020;2024-01-25T04:06:11;102838.59;;;17.03;100.00
53960;BME280;39866;48.638;-2.020;2024-01-25T04:08:37;102832.28;;;17.04;100.00
53960;BME280;39866;48.638;-2.020;2024-01-25T04:11:02;102830.47;;;17.04;100.00
53960;BME280;39866;48.638;-2.020;2024-01-25T04:13:28;102825.97;;;17.05;100.00
53960;BME280;39866;48.638;-2.020;2024-01-25T04:15:53;102833.91;;;17.11;100.00
53960;BME280;39866;48.638;-2.020;2024-01-25T04:18:18;102831.94;;;17.19;100.00
53960;BME280;39866;48.638;-2.020;2024-01-25T04:20:44;102821.47;;;17.05;100.00
53960;BME280;39866;48.638;-2.020;2024-01-25T04:23:09;102817.47;;;17.23;100.00
53960;BME280;39866;48.638;-2.020;2024-01-25T04:25:35;102822.00;;;17.21;100.00
53960;BME280;39866;48.638;-2.020;2024-01-25T04:28:01;102808.53;;;17.23;100.00
53960;BME280;39866;48.638;-2.020;2024-01-25T04:30:27;102813.09;;;17.18;100.00
53960;BME280;39866;48.638;-2.020;2024-01-25T04:32:52;102808.72;;;17.14;100.00
53960;BME280;39866;48.638;-2.020;2024-01-25T04:35:18;102807.28;;;16.99;100.00
53960;BME280;39866;48.638;-2.020;2024-01-25T04:37:43;102798.69;;;17.20;100.00
53960;BME280;39866;48.638;-2.020;2024-01-25T04:40:08;102786.47;;;17.07;100.00
53960;BME280;39866;48.638;-2.020;2024-01-25T04:42:34;102743.22;;;17.15;100.00
53960;BME280;39866;48.638;-2.020;2024-01-25T04:44:59;102765.34;;;17.26;100.00
53960;BME280;39866;48.638;-2.020;2024-01-25T04:47:24;102764.34;;;17.31;100.00
53960;BME280;39866;48.638;-2.020;2024-01-25T04:49:50;102754.13;;;17.08;100.00
53960;BME280;39866;48.638;-2.020;2024-01-25T04:52:15;102754.75;;;17.18;100.00
53960;BME280;39866;48.638;-2.020;2024-01-25T04:54:41;102749.44;;;17.17;100.00
53960;BME280;39866;48.638;-2.020;2024-01-25T04:57:06;102761.00;;;16.83;100.00
53960;BME280;39866;48.638;-2.020;2024-01-25T04:59:32;102750.47;;;17.11;100.00
53960;BME280;39866;48.638;-2.020;2024-01-25T05:01:59;102753.06;;;17.16;100.00
53960;BME280;39866;48.638;-2.020;2024-01-25T05:04:24;102750.38;;;17.14;100.00
53960;BME280;39866;48.638;-2.020;2024-01-25T05:06:49;102744.28;;;17.06;100.00
53960;BME280;39866;48.638;-2.020;2024-01-25T05:09:15;102758.31;;;17.20;100.00
53960;BME280;39866;48.638;-2.020;2024-01-25T05:11:40;102756.75;;;17.12;100.00
53960;BME280;39866;48.638;-2.020;2024-01-25T05:14:06;102757.63;;;17.12;100.00
53960;BME280;39866;48.638;-2.020;2024-01-25T05:16:32;102752.88;;;17.23;100.00
53960;BME280;39866;48.638;-2.020;2024-01-25T05:18:57;102748.31;;;17.27;100.00
53960;BME280;39866;48.638;-2.020;2024-01-25T05:21:22;102748.63;;;17.13;100.00
53960;BME280;39866;48.638;-2.020;2024-01-25T05:23:47;102755.63;;;17.20;100.00
53960;BME280;39866;48.638;-2.020;2024-01-25T05:26:13;102754.75;;;17.18;100.00
53960;BME280;39866;48.638;-2.020;2024-01-25T05:28:38;102751.31;;;17.13;100.00
53960;BME280;39866;48.638;-2.020;2024-01-25T05:31:04;102752.06;;;17.18;100.00
53960;BME280;39866;48.638;-2.020;2024-01-25T05:33:29;102754.00;;;17.13;100.00
53960;BME280;39866;48.638;-2.020;2024-01-25T05:35:54;102754.63;;;17.24;100.00
53960;BME280;39866;48.638;-2.020;2024-01-25T05:38:20;102756.44;;;17.24;100.00
53960;BME280;39866;48.638;-2.020;2024-01-25T05:40:45;102757.16;;;17.30;100.00
53960;BME280;39866;48.638;-2.020;2024-01-25T05:43:10;102755.47;;;17.26;100.00
53960;BME280;39866;48.638;-2.020;2024-01-25T05:45:36;102747.59;;;17.19;100.00
53960;BME280;39866;48.638;-2.020;2024-01-25T05:48:01;102742.06;;;17.25;100.00
53960;BME280;39866;48.638;-2.020;2024-01-25T05:50:26;102742.13;;;17.22;100.00
53960;BME280;39866;48.638;-2.020;2024-01-25T05:52:51;102761.84;;;17.22;100.00
53960;BME280;39866;48.638;-2.020;2024-01-25T05:55:17;102752.00;;;17.21;100.00
53960;BME280;39866;48.638;-2.020;2024-01-25T05:57:43;102744.91;;;17.19;100.00
53960;BME280;39866;48.638;-2.020;2024-01-25T06:00:11;102752.25;;;17.12;100.00
53960;BME280;39866;48.638;-2.020;2024-01-25T06:02:37;102750.53;;;17.08;100.00
53960;BME280;39866;48.638;-2.020;2024-01-25T06:05:03;102730.66;;;17.15;100.00
53960;BME280;39866;48.638;-2.020;2024-01-25T06:07:28;102727.38;;;17.01;100.00
53960;BME280;39866;48.638;-2.020;2024-01-25T06:09:54;102726.38;;;17.06;100.00
53960;BME280;39866;48.638;-2.020;2024-01-25T06:12:19;102722.25;;;17.27;100.00
53960;BME280;39866;48.638;-2.020;2024-01-25T06:14:44;102743.25;;;17.13;100.00
53960;BME280;39866;48.638;-2.020;2024-01-25T06:17:10;102736.09;;;17.12;100.00
53960;BME280;39866;48.638;-2.020;2024-01-25T06:19:35;102741.59;;;17.06;100.00
53960;BME280;39866;48.638;-2.020;2024-01-25T06:22:00;102732.53;;;17.10;100.00
53960;BME280;39866;48.638;-2.020;2024-01-25T06:24:26;102744.47;;;17.00;100.00
53960;BME280;39866;48.638;-2.020;2024-01-25T06:26:53;102743.28;;;17.12;100.00
53960;BME280;39866;48.638;-2.020;2024-01-25T06:29:19;102743.09;;;17.19;100.00
53960;BME280;39866;48.638;-2.020;2024-01-25T06:31:44;102740.78;;;17.04;100.00
53960;BME280;39866;48.638;-2.020;2024-01-25T06:34:10;102733.66;;;17.01;100.00
53960;BME280;39866;48.638;-2.020;2024-01-25T06:36:36;102743.00;;;17.22;100.00
53960;BME280;39866;48.638;-2.020;2024-01-25T06:39:01;102741.47;;;17.12;100.00
53960;BME280;39866;48.638;-2.020;2024-01-25T06:41:28;102738.72;;;17.15;100.00
53960;BME280;39866;48.638;-2.020;2024-01-25T06:43:53;102735.34;;;17.05;100.00
53960;BME280;39866;48.638;-2.020;2024-01-25T06:46:18;102727.78;;;17.21;100.00
53960;BME280;39866;48.638;-2.020;2024-01-25T06:48:44;102702.91;;;17.12;100.00
53960;BME280;39866;48.638;-2.020;2024-01-25T06:51:09;102704.69;;;17.13;100.00
53960;BME280;39866;48.638;-2.020;2024-01-25T06:53:35;102712.63;;;17.19;100.00
53960;BME280;39866;48.638;-2.020;2024-01-25T06:56:00;102719.78;;;17.18;100.00
53960;BME280;39866;48.638;-2.020;2024-01-25T06:58:25;102721.72;;;17.13;100.00
53960;BME280;39866;48.638;-2.020;2024-01-25T07:00:51;102740.22;;;17.27;100.00
53960;BME280;39866;48.638;-2.020;2024-01-25T07:03:18;102736.09;;;17.12;100.00
53960;BME280;39866;48.638;-2.020;2024-01-25T07:05:43;102735.78;;;17.24;100.00
53960;BME280;39866;48.638;-2.020;2024-01-25T07:08:08;102722.56;;;17.15;100.00
53960;BME280;39866;48.638;-2.020;2024-01-25T07:10:38;102717.19;;;17.14;100.00
53960;BME280;39866;48.638;-2.020;2024-01-25T07:13:03;102715.31;;;17.17;100.00
53960;BME280;39866;48.638;-2.020;2024-01-25T07:15:29;102716.69;;;16.98;100.00
53960;BME280;39866;48.638;-2.020;2024-01-25T07:17:54;102709.31;;;17.06;100.00
53960;BME280;39866;48.638;-2.020;2024-01-25T07:20:19;102710.47;;;16.96;100.00
53960;BME280;39866;48.638;-2.020;2024-01-25T07:22:45;102713.22;;;16.94;100.00
53960;BME280;39866;48.638;-2.020;2024-01-25T07:25:10;102707.72;;;16.99;100.00
53960;BME280;39866;48.638;-2.020;2024-01-25T07:27:35;102707.03;;;16.89;100.00
53960;BME280;39866;48.638;-2.020;2024-01-25T07:30:01;102701.53;;;16.95;100.00
53960;BME280;39866;48.638;-2.020;2024-01-25T07:32:27;102705.84;;;17.01;100.00
53960;BME280;39866;48.638;-2.020;2024-01-25T07:34:52;102698.25;;;16.82;100.00
53960;BME280;39866;48.638;-2.020;2024-01-25T07:37:18;102713.00;;;17.02;100.00
53960;BME280;39866;48.638;-2.020;2024-01-25T07:39:44;102709.59;;;16.95;100.00
53960;BME280;39866;48.638;-2.020;2024-01-25T07:42:10;102706.91;;;16.95;100.00
53960;BME280;39866;48.638;-2.020;2024-01-25T07:44:35;102714.09;;;16.93;100.00
53960;BME280;39866;48.638;-2.020;2024-01-25T07:47:01;102704.63;;;16.78;100.00
53960;BME280;39866;48.638;-2.020;2024-01-25T07:49:27;102706.22;;;16.86;100.00
53960;BME280;39866;48.638;-2.020;2024-01-25T07:51:52;102710.31;;;17.02;100.00
53960;BME280;39866;48.638;-2.020;2024-01-25T07:54:18;102712.09;;;17.03;100.00
53960;BME280;39866;48.638;-2.020;2024-01-25T07:56:43;102705.72;;;17.07;100.00
53960;BME280;39866;48.638;-2.020;2024-01-25T07:59:08;102711.13;;;17.05;100.00
53960;BME280;39866;48.638;-2.020;2024-01-25T08:01:34;102715.09;;;16.91;100.00
53960;BME280;39866;48.638;-2.020;2024-01-25T08:03:59;102715.97;;;16.91;100.00
53960;BME280;39866;48.638;-2.020;2024-01-25T08:06:25;102713.41;;;16.85;100.00
53960;BME280;39866;48.638;-2.020;2024-01-25T08:08:51;102710.59;;;16.91;100.00
53960;BME280;39866;48.638;-2.020;2024-01-25T08:11:17;102707.13;;;16.86;100.00
53960;BME280;39866;48.638;-2.020;2024-01-25T08:13:45;102700.00;;;16.83;100.00
53960;BME280;39866;48.638;-2.020;2024-01-25T08:16:10;102705.28;;;16.88;100.00
53960;BME280;39866;48.638;-2.020;2024-01-25T08:18:36;102709.00;;;16.82;100.00
53960;BME280;39866;48.638;-2.020;2024-01-25T08:21:01;102698.38;;;16.76;100.00
53960;BME280;39866;48.638;-2.020;2024-01-25T08:23:27;102697.09;;;16.54;100.00
53960;BME280;39866;48.638;-2.020;2024-01-25T08:25:52;102696.47;;;16.41;100.00
53960;BME280;39866;48.638;-2.020;2024-01-25T08:28:18;102700.53;;;16.59;100.00
53960;BME280;39866;48.638;-2.020;2024-01-25T08:30:44;102702.47;;;16.54;100.00
53960;BME280;39866;48.638;-2.020;2024-01-25T08:33:10;102692.53;;;16.56;100.00
53960;BME280;39866;48.638;-2.020;2024-01-25T08:35:35;102702.94;;;16.71;100.00
53960;BME280;39866;48.638;-2.020;2024-01-25T08:38:00;102712.69;;;16.78;100.00
53960;BME280;39866;48.638;-2.020;2024-01-25T08:40:26;102711.91;;;16.72;100.00
53960;BME280;39866;48.638;-2.020;2024-01-25T08:42:51;102720.19;;;17.03;100.00
53960;BME280;39866;48.638;-2.020;2024-01-25T08:45:16;102706.34;;;16.81;100.00
53960;BME280;39866;48.638;-2.020;2024-01-25T08:47:44;102708.41;;;16.68;100.00
53960;BME280;39866;48.638;-2.020;2024-01-25T08:50:10;102700.94;;;16.81;100.00
53960;BME280;39866;48.638;-2.020;2024-01-25T08:52:37;102709.88;;;16.83;100.00
53960;BME280;39866;48.638;-2.020;2024-01-25T08:55:04;102702.06;;;16.71;100.00
53960;BME280;39866;48.638;-2.020;2024-01-25T08:57:30;102709.00;;;16.82;100.00
53960;BME280;39866;48.638;-2.020;2024-01-25T08:59:55;102713.28;;;16.90;100.00
53960;BME280;39866;48.638;-2.020;2024-01-25T09:02:23;102713.84;;;16.65;100.00
53960;BME280;39866;48.638;-2.020;2024-01-25T09:04:52;102718.84;;;16.83;100.00
53960;BME280;39866;48.638;-2.020;2024-01-25T09:07:21;102711.75;;;16.79;100.00
53960;BME280;39866;48.638;-2.020;2024-01-25T09:09:47;102703.47;;;16.89;100.00
53960;BME280;39866;48.638;-2.020;2024-01-25T09:12:13;102706.91;;;16.94;100.00
53960;BME280;39866;48.638;-2.020;2024-01-25T09:14:39;102704.31;;;16.91;100.00
53960;BME280;39866;48.638;-2.020;2024-01-25T09:17:05;102708.00;;;16.87;100.00
53960;BME280;39866;48.638;-2.020;2024-01-25T09:19:31;102706.09;;;16.92;100.00
53960;BME280;39866;48.638;-2.020;2024-01-25T09:21:56;102713.28;;;16.91;100.00
53960;BME280;39866;48.638;-2.020;2024-01-25T09:24:25;102699.88;;;16.88;100.00
53960;BME280;39866;48.638;-2.020;2024-01-25T09:26:50;102713.41;;;16.87;100.00
53960;BME280;39866;48.638;-2.020;2024-01-25T09:29:15;102716.38;;;16.73;100.00
53960;BME280;39866;48.638;-2.020;2024-01-25T09:31:41;102711.72;;;16.81;100.00
53960;BME280;39866;48.638;-2.020;2024-01-25T09:34:07;102709.38;;;16.66;100.00
53960;BME280;39866;48.638;-2.020;2024-01-25T09:36:32;102713.78;;;16.68;100.00
53960;BME280;39866;48.638;-2.020;2024-01-25T09:38:57;102713.78;;;16.68;100.00
53960;BME280;39866;48.638;-2.020;2024-01-25T09:41:23;102712.00;;;16.67;100.00
53960;BME280;39866;48.638;-2.020;2024-01-25T09:43:49;102720.19;;;16.61;100.00
53960;BME280;39866;48.638;-2.020;2024-01-25T09:46:14;102719.16;;;16.68;100.00
53960;BME280;39866;48.638;-2.020;2024-01-25T09:48:42;102724.47;;;16.71;100.00
53960;BME280;39866;48.638;-2.020;2024-01-25T09:51:09;102725.41;;;16.70;100.00
53960;BME280;39866;48.638;-2.020;2024-01-25T09:53:37;102729.81;;;16.74;100.00
53960;BME280;39866;48.638;-2.020;2024-01-25T09:56:06;102732.81;;;16.59;100.00
53960;BME280;39866;48.638;-2.020;2024-01-25T09:58:42;102724.81;;;16.56;100.00
53960;BME280;39866;48.638;-2.020;2024-01-25T10:01:12;102723.31;;;16.43;100.00
53960;BME280;39866;48.638;-2.020;2024-01-25T10:03:41;102710.09;;;16.32;100.00
53960;BME280;39866;48.638;-2.020;2024-01-25T10:06:07;102720.56;;;16.44;100.00
53960;BME280;39866;48.638;-2.020;2024-01-25T10:08:33;102720.47;;;16.50;100.00
53960;BME280;39866;48.638;-2.020;2024-01-25T10:10:59;102723.09;;;16.53;100.00
53960;BME280;39866;48.638;-2.020;2024-01-25T10:13:28;102723.88;;;16.58;100.00
53960;BME280;39866;48.638;-2.020;2024-01-25T10:15:53;102706.25;;;16.45;100.00
53960;BME280;39866;48.638;-2.020;2024-01-25T10:18:20;102723.44;;;16.37;100.00
53960;BME280;39866;48.638;-2.020;2024-01-25T10:20:45;102722.38;;;16.45;100.00
53960;BME280;39866;48.638;-2.020;2024-01-25T10:23:11;102714.84;;;16.19;100.00
53960;BME280;39866;48.638;-2.020;2024-01-25T10:25:36;102709.72;;;16.49;100.00
53960;BME280;39866;48.638;-2.020;2024-01-25T10:28:06;102702.53;;;16.51;100.00
53960;BME280;39866;48.638;-2.020;2024-01-25T10:30:32;102711.34;;;16.57;100.00
53960;BME280;39866;48.638;-2.020;2024-01-25T10:32:58;102711.31;;;16.59;100.00
53960;BME280;39866;48.638;-2.020;2024-01-25T10:35:25;102697.63;;;16.70;100.00
53960;BME280;39866;48.638;-2.020;2024-01-25T10:37:51;102698.56;;;16.67;100.00
53960;BME280;39866;48.638;-2.020;2024-01-25T10:40:18;102696.22;;;16.52;100.00
53960;BME280;39866;48.638;-2.020;2024-01-25T10:42:44;102707.84;;;16.54;100.00
53960;BME280;39866;48.638;-2.020;2024-01-25T10:45:09;102700.25;;;16.71;100.00
53960;BME280;39866;48.638;-2.020;2024-01-25T10:47:35;102696.66;;;16.74;100.00
53960;BME280;39866;48.638;-2.020;2024-01-25T10:50:01;102687.69;;;16.73;100.00
53960;BME280;39866;48.638;-2.020;2024-01-25T10:52:31;102692.94;;;16.79;100.00
53960;BME280;39866;48.638;-2.020;2024-01-25T10:54:57;102691.13;;;16.80;100.00
53960;BME280;39866;48.638;-2.020;2024-01-25T10:57:23;102687.69;;;16.72;100.00
53960;BME280;39866;48.638;-2.020;2024-01-25T10:59:49;102696.16;;;16.95;100.00
53960;BME280;39866;48.638;-2.020;2024-01-25T11:02:18;102689.19;;;16.85;100.00
53960;BME280;39866;48.638;-2.020;2024-01-25T11:04:53;102688.53;;;16.75;100.00
53960;BME280;39866;48.638;-2.020;2024-01-25T11:07:18;102681.31;;;16.77;100.00
53960;BME280;39866;48.638;-2.020;2024-01-25T11:09:44;102685.75;;;16.80;100.00
53960;BME280;39866;48.638;-2.020;2024-01-25T11:12:13;102684.69;;;16.86;100.00
53960;BME280;39866;48.638;-2.020;2024-01-25T11:14:41;102684.50;;;16.95;100.00
53960;BME280;39866;48.638;-2.020;2024-01-25T11:17:20;102683.63;;;16.93;100.00
53960;BME280;39866;48.638;-2.020;2024-01-25T11:19:46;102672.84;;;16.94;100.00
53960;BME280;39866;48.638;-2.020;2024-01-25T11:22:11;102663.91;;;16.92;100.00
53960;BME280;39866;48.638;-2.020;2024-01-25T11:24:38;102659.69;;;16.82;100.00
53960;BME280;39866;48.638;-2.020;2024-01-25T11:27:05;102644.47;;;17.17;100.00
53960;BME280;39866;48.638;-2.020;2024-01-25T11:29:30;102650.78;;;17.14;100.00
53960;BME280;39866;48.638;-2.020;2024-01-25T11:31:56;102657.47;;;17.33;100.00
53960;BME280;39866;48.638;-2.020;2024-01-25T11:34:22;102654.91;;;17.29;100.00
53960;BME280;39866;48.638;-2.020;2024-01-25T11:36:48;102647.72;;;17.29;100.00
53960;BME280;39866;48.638;-2.020;2024-01-25T11:39:15;102626.56;;;17.14;100.00
53960;BME280;39866;48.638;-2.020;2024-01-25T11:41:44;102630.38;;;17.07;100.00
53960;BME280;39866;48.638;-2.020;2024-01-25T11:44:11;102630.38;;;17.07;100.00
53960;BME280;39866;48.638;-2.020;2024-01-25T11:46:36;102627.38;;;17.18;100.00
53960;BME280;39866;48.638;-2.020;2024-01-25T11:49:02;102618.84;;;17.34;100.00
53960;BME280;39866;48.638;-2.020;2024-01-25T11:51:27;102621.59;;;17.33;100.00
53960;BME280;39866;48.638;-2.020;2024-01-25T11:53:53;102598.28;;;17.32;100.00
53960;BME280;39866;48.638;-2.020;2024-01-25T11:56:28;102599.72;;;17.13;100.00
53960;BME280;39866;48.638;-2.020;2024-01-25T11:58:54;102615.94;;;17.42;100.00
53960;BME280;39866;48.638;-2.020;2024-01-25T12:01:22;102615.38;;;17.64;100.00
53960;BME280;39866;48.638;-2.020;2024-01-25T12:03:48;102613.56;;;17.64;100.00
53960;BME280;39866;48.638;-2.020;2024-01-25T12:06:13;102613.03;;;17.50;100.00
53960;BME280;39866;48.638;-2.020;2024-01-25T12:08:39;102614.47;;;17.63;100.00
53960;BME280;39866;48.638;-2.020;2024-01-25T12:11:14;102618.16;;;17.59;100.00
53960;BME280;39866;48.638;-2.020;2024-01-25T12:13:40;102603.38;;;17.75;100.00
53960;BME280;39866;48.638;-2.020;2024-01-25T12:16:06;102613.63;;;17.94;100.00
53960;BME280;39866;48.638;-2.020;2024-01-25T12:18:32;102609.28;;;18.18;100.00
53960;BME280;39866;48.638;-2.020;2024-01-25T12:21:03;102603.53;;;18.00;100.00
53960;BME280;39866;48.638;-2.020;2024-01-25T12:23:35;102600.56;;;18.10;100.00